ETSI

Ingolstadt Manching Airport

Manching, Germany
METAR ETSI 181420Z AUTO 19003KT 6000 // ////// 27/14 Q1019 ///
Observed Flight Rules
Aug-18 @ 14:20 UTC (33 minutes ago)
Wind Visibility
190° at 3 knots 6,003 meters
Temperatures Readings
Current 27°C / 81°F
Dewpoint 14°C / 57°F
Humidity 45%
Altimeter 30.09" Hg
Pressure 1019 hPa
Elevation 370
METAR ETSI 181420Z AUTO 19003KT 6000 // ////// 27/14 Q1019 ///
Observed Flight Rules
Aug-18 @ 14:20 UTC
(33 minutes ago)
Wind Visibility
190° at 3 knots 6,003 meters
Temperature Dewpoint
27°C / 81°F 14°C / 57°F
Humidity Altimeter Pressure
45% 30.09" Hg 1019 hPa